RYR99JH LIMJ-LICA
Flight info
| Callsign | RYR99JH |
|---|---|
| Flight time | 0h 38m |
| Altitude | 35000 |
| Route | UNITA L50 KONER DCT BAKRO DCT ELB DCT SOR DCT POLIT DCT EVINO M620 ARBUM |
| Aircraft | B738/M-SDE2E3FGHIRWXY/LB1 |
Departure
| Time | 2026-04-29 05:44 |
|---|---|
| Airport | Genoa Cristoforo Colombo Airport (LIMJ) |
Arrival
| Time | 2026-04-29 06:22 |
|---|---|
| Airport | Lamezia Terme Sant'Eufemia International Airport (LICA) |
| Time | Latitude | Longitude | Altitude | Speed | Heading |
|---|---|---|---|---|---|
| 2026-04-29 05:09 | 44.41433 | 8.84930 | 19 ft | 0 kts | 62° |
| 2026-04-29 05:35 | 44.41425 | 8.84910 | 19 ft | 4 kts | 60° |
| 2026-04-29 05:35 | 44.41412 | 8.84877 | 19 ft | 4 kts | 60° |
| 2026-04-29 05:35 | 44.41398 | 8.84845 | 19 ft | 4 kts | 65° |
| 2026-04-29 05:35 | 44.41390 | 8.84810 | 19 ft | 4 kts | 81° |
| 2026-04-29 05:36 | 44.41389 | 8.84773 | 19 ft | 4 kts | 102° |
| 2026-04-29 05:36 | 44.41392 | 8.84757 | 19 ft | 1 kts | 105° |
| 2026-04-29 05:36 | 44.41392 | 8.84756 | 19 ft | 0 kts | 105° |
| 2026-04-29 05:39 | 44.41386 | 8.84785 | 19 ft | 6 kts | 105° |
| 2026-04-29 05:39 | 44.41370 | 8.84866 | 22 ft | 11 kts | 105° |
| 2026-04-29 05:40 | 44.41349 | 8.84989 | 19 ft | 15 kts | 102° |
| 2026-04-29 05:40 | 44.41323 | 8.85142 | 21 ft | 16 kts | 104° |
| 2026-04-29 05:40 | 44.41274 | 8.85274 | 21 ft | 16 kts | 153° |
| 2026-04-29 05:40 | 44.41169 | 8.85265 | 20 ft | 15 kts | 194° |
| 2026-04-29 05:41 | 44.41074 | 8.85213 | 20 ft | 14 kts | 207° |
| 2026-04-29 05:41 | 44.40993 | 8.85245 | 18 ft | 14 kts | 119° |
| 2026-04-29 05:41 | 44.40965 | 8.85374 | 21 ft | 14 kts | 106° |
| 2026-04-29 05:41 | 44.40934 | 8.85524 | 22 ft | 17 kts | 106° |
| 2026-04-29 05:42 | 44.40902 | 8.85685 | 22 ft | 17 kts | 106° |
| 2026-04-29 05:42 | 44.40870 | 8.85840 | 23 ft | 16 kts | 105° |
| 2026-04-29 05:42 | 44.40868 | 8.85992 | 23 ft | 16 kts | 71° |
| 2026-04-29 05:42 | 44.40840 | 8.86044 | 21 ft | 10 kts | 219° |
| 2026-04-29 05:43 | 44.40843 | 8.85989 | 22 ft | 0 kts | 285° |
| 2026-04-29 05:43 | 44.40859 | 8.85911 | 22 ft | 31 kts | 285° |
| 2026-04-29 05:43 | 44.40983 | 8.85276 | 19 ft | 103 kts | 285° |
| 2026-04-29 05:44 | 44.41230 | 8.84030 | 28 ft | 161 kts | 286° |
| 2026-04-29 05:44 | 44.41549 | 8.82487 | 651 ft | 161 kts | 287° |
| 2026-04-29 05:44 | 44.41819 | 8.80929 | 1300 ft | 171 kts | 270° |
| 2026-04-29 05:44 | 44.41415 | 8.79349 | 1858 ft | 185 kts | 230° |
| 2026-04-29 05:45 | 44.40301 | 8.78318 | 2112 ft | 203 kts | 192° |
| 2026-04-29 05:45 | 44.38895 | 8.78477 | 2506 ft | 211 kts | 155° |
| 2026-04-29 05:45 | 44.37574 | 8.79505 | 2803 ft | 223 kts | 150° |
| 2026-04-29 05:45 | 44.36194 | 8.80520 | 3415 ft | 223 kts | 151° |
| 2026-04-29 05:46 | 44.34774 | 8.81405 | 3997 ft | 227 kts | 168° |
| 2026-04-29 05:46 | 44.33190 | 8.81430 | 4591 ft | 229 kts | 182° |
| 2026-04-29 05:46 | 44.31590 | 8.81315 | 5189 ft | 231 kts | 181° |
| 2026-04-29 05:46 | 44.29978 | 8.81213 | 5783 ft | 233 kts | 181° |
| 2026-04-29 05:47 | 44.28349 | 8.81117 | 6359 ft | 235 kts | 181° |
| 2026-04-29 05:47 | 44.26713 | 8.81026 | 6964 ft | 236 kts | 181° |
| 2026-04-29 05:47 | 44.25052 | 8.80936 | 7443 ft | 246 kts | 181° |
| 2026-04-29 05:47 | 44.23258 | 8.80844 | 7613 ft | 268 kts | 181° |
| 2026-04-29 05:48 | 44.21345 | 8.80748 | 8017 ft | 279 kts | 181° |
| 2026-04-29 05:48 | 44.19387 | 8.80650 | 8633 ft | 283 kts | 181° |
| 2026-04-29 05:48 | 44.17408 | 8.80553 | 9285 ft | 286 kts | 181° |
| 2026-04-29 05:48 | 44.15411 | 8.80461 | 9961 ft | 288 kts | 180° |
| 2026-04-29 05:49 | 44.13430 | 8.80945 | 10475 ft | 298 kts | 160° |
| 2026-04-29 05:49 | 44.11579 | 8.82462 | 10634 ft | 320 kts | 142° |
| 2026-04-29 05:49 | 44.09845 | 8.84487 | 10809 ft | 339 kts | 140° |
| 2026-04-29 05:49 | 44.07818 | 8.86913 | 11285 ft | 349 kts | 141° |
| 2026-04-29 05:50 | 44.04546 | 8.90766 | 12416 ft | 354 kts | 141° |
| 2026-04-29 05:50 | 44.01370 | 8.94451 | 13452 ft | 359 kts | 142° |
| 2026-04-29 05:50 | 43.97485 | 8.98935 | 14693 ft | 367 kts | 142° |
| 2026-04-29 05:50 | 43.94430 | 9.02459 | 15657 ft | 373 kts | 142° |
| 2026-04-29 05:51 | 43.90603 | 9.06899 | 16771 ft | 380 kts | 142° |
| 2026-04-29 05:51 | 43.86512 | 9.11653 | 17910 ft | 388 kts | 142° |
| 2026-04-29 05:51 | 43.82337 | 9.16493 | 18982 ft | 395 kts | 142° |
| 2026-04-29 05:51 | 43.79207 | 9.20112 | 19725 ft | 401 kts | 142° |
| 2026-04-29 05:52 | 43.74874 | 9.25100 | 20697 ft | 408 kts | 142° |
| 2026-04-29 05:52 | 43.70473 | 9.30155 | 21625 ft | 415 kts | 142° |
| 2026-04-29 05:52 | 43.65992 | 9.35295 | 22482 ft | 422 kts | 142° |
| 2026-04-29 05:52 | 43.61433 | 9.40516 | 23329 ft | 428 kts | 142° |
| 2026-04-29 05:53 | 43.56871 | 9.45730 | 24103 ft | 434 kts | 142° |
| 2026-04-29 05:53 | 43.52184 | 9.51077 | 24870 ft | 440 kts | 142° |
| 2026-04-29 05:53 | 43.48635 | 9.55116 | 25431 ft | 444 kts | 142° |
| 2026-04-29 05:53 | 43.43843 | 9.60552 | 26134 ft | 448 kts | 142° |
| 2026-04-29 05:54 | 43.39013 | 9.66021 | 26830 ft | 452 kts | 142° |
| 2026-04-29 05:54 | 43.34128 | 9.71542 | 27455 ft | 457 kts | 142° |
| 2026-04-29 05:54 | 43.29197 | 9.77106 | 28064 ft | 461 kts | 142° |
| 2026-04-29 05:54 | 43.24215 | 9.82716 | 28620 ft | 465 kts | 142° |
| 2026-04-29 05:55 | 43.19478 | 9.88036 | 29187 ft | 467 kts | 142° |
| 2026-04-29 05:55 | 43.15366 | 9.92645 | 29588 ft | 470 kts | 142° |
| 2026-04-29 05:55 | 43.10339 | 9.98270 | 30142 ft | 472 kts | 142° |
| 2026-04-29 05:55 | 43.05275 | 10.03928 | 30858 ft | 468 kts | 142° |
| 2026-04-29 05:56 | 43.00216 | 10.09571 | 31356 ft | 470 kts | 142° |
| 2026-04-29 05:56 | 42.95155 | 10.15201 | 32054 ft | 466 kts | 142° |
| 2026-04-29 05:56 | 42.90143 | 10.20766 | 32599 ft | 466 kts | 143° |
| 2026-04-29 05:56 | 42.85121 | 10.26328 | 33202 ft | 463 kts | 143° |
| 2026-04-29 05:57 | 42.80920 | 10.30974 | 33620 ft | 463 kts | 143° |
| 2026-04-29 05:57 | 42.78413 | 10.33743 | 33829 ft | 463 kts | 143° |
| 2026-04-29 05:57 | 42.75914 | 10.36498 | 34100 ft | 462 kts | 143° |
| 2026-04-29 05:57 | 42.73483 | 10.39368 | 34389 ft | 462 kts | 136° |
| 2026-04-29 05:58 | 42.71375 | 10.42666 | 34614 ft | 463 kts | 127° |
| 2026-04-29 05:58 | 42.69520 | 10.46250 | 34775 ft | 465 kts | 126° |
| 2026-04-29 05:58 | 42.67694 | 10.49881 | 34922 ft | 466 kts | 126° |
| 2026-04-29 05:58 | 42.65873 | 10.53522 | 35033 ft | 467 kts | 125° |
| 2026-04-29 05:59 | 42.54216 | 10.76359 | 35057 ft | 466 kts | 126° |
| 2026-04-29 05:59 | 42.39292 | 11.05049 | 35056 ft | 465 kts | 126° |
| 2026-04-29 06:00 | 42.24438 | 11.33364 | 35061 ft | 465 kts | 126° |
| 2026-04-29 06:00 | 42.09434 | 11.61701 | 35078 ft | 465 kts | 126° |
| 2026-04-29 06:01 | 41.94324 | 11.89970 | 35084 ft | 465 kts | 126° |
| 2026-04-29 06:01 | 41.79171 | 12.18058 | 35076 ft | 466 kts | 127° |
| 2026-04-29 06:02 | 41.63888 | 12.46127 | 35078 ft | 467 kts | 127° |
| 2026-04-29 06:02 | 41.50878 | 12.69815 | 35054 ft | 468 kts | 127° |
| 2026-04-29 06:03 | 41.37943 | 12.93190 | 35071 ft | 467 kts | 127° |
| 2026-04-29 06:03 | 41.22573 | 13.20736 | 35075 ft | 467 kts | 127° |
| 2026-04-29 06:04 | 41.07034 | 13.48334 | 35070 ft | 466 kts | 127° |
| 2026-04-29 06:04 | 40.91372 | 13.75901 | 35067 ft | 465 kts | 128° |
| 2026-04-29 06:05 | 40.84567 | 13.86678 | 35084 ft | 463 kts | 140° |
| 2026-04-29 06:05 | 40.67337 | 14.06312 | 35071 ft | 463 kts | 140° |
| 2026-04-29 06:06 | 40.57711 | 14.17378 | 33833 ft | 453 kts | 140° |
| 2026-04-29 06:06 | 40.48358 | 14.28080 | 32138 ft | 440 kts | 140° |
| 2026-04-29 06:06 | 40.39242 | 14.38459 | 30475 ft | 427 kts | 140° |
| 2026-04-29 06:06 | 40.30389 | 14.48503 | 28824 ft | 414 kts | 140° |
| 2026-04-29 06:07 | 40.21792 | 14.58223 | 27181 ft | 403 kts | 140° |
| 2026-04-29 06:07 | 40.13410 | 14.67666 | 25571 ft | 392 kts | 140° |
| 2026-04-29 06:07 | 40.05254 | 14.76825 | 23994 ft | 381 kts | 140° |
| 2026-04-29 06:07 | 39.97294 | 14.85735 | 22447 ft | 372 kts | 140° |
| 2026-04-29 06:08 | 39.89541 | 14.94387 | 20948 ft | 363 kts | 140° |
| 2026-04-29 06:08 | 39.83014 | 15.01649 | 19686 ft | 355 kts | 140° |
| 2026-04-29 06:08 | 39.81153 | 15.03717 | 19317 ft | 347 kts | 140° |
| 2026-04-29 06:08 | 39.79216 | 15.05869 | 18943 ft | 337 kts | 140° |
| 2026-04-29 06:09 | 39.75728 | 15.09736 | 18236 ft | 322 kts | 140° |
| 2026-04-29 06:09 | 39.72338 | 15.13488 | 17617 ft | 319 kts | 140° |
| 2026-04-29 06:09 | 39.68966 | 15.17216 | 16975 ft | 319 kts | 140° |
| 2026-04-29 06:09 | 39.65589 | 15.20945 | 16327 ft | 318 kts | 140° |
| 2026-04-29 06:10 | 39.62222 | 15.24659 | 15683 ft | 318 kts | 140° |
| 2026-04-29 06:10 | 39.58860 | 15.28362 | 15004 ft | 316 kts | 140° |
| 2026-04-29 06:10 | 39.55521 | 15.32034 | 14337 ft | 314 kts | 141° |
| 2026-04-29 06:10 | 39.52198 | 15.35685 | 13681 ft | 312 kts | 141° |
| 2026-04-29 06:11 | 39.48907 | 15.39296 | 13017 ft | 309 kts | 141° |
| 2026-04-29 06:11 | 39.42788 | 15.45996 | 11815 ft | 305 kts | 141° |
| 2026-04-29 06:11 | 39.37985 | 15.51247 | 10861 ft | 302 kts | 141° |
| 2026-04-29 06:11 | 39.36382 | 15.52998 | 10543 ft | 300 kts | 141° |
| 2026-04-29 06:12 | 39.34825 | 15.54696 | 10406 ft | 287 kts | 141° |
| 2026-04-29 06:12 | 39.33310 | 15.56348 | 10284 ft | 282 kts | 141° |
| 2026-04-29 06:12 | 39.31818 | 15.57975 | 10173 ft | 280 kts | 141° |
| 2026-04-29 06:12 | 39.30322 | 15.59604 | 9903 ft | 284 kts | 141° |
| 2026-04-29 06:13 | 39.28470 | 15.61617 | 9566 ft | 290 kts | 141° |
| 2026-04-29 06:13 | 39.26069 | 15.64225 | 9113 ft | 290 kts | 141° |
| 2026-04-29 06:13 | 39.24549 | 15.65877 | 8806 ft | 282 kts | 141° |
| 2026-04-29 06:13 | 39.23071 | 15.67483 | 8514 ft | 274 kts | 141° |
| 2026-04-29 06:14 | 39.21637 | 15.69040 | 8238 ft | 266 kts | 141° |
| 2026-04-29 06:14 | 39.20242 | 15.70553 | 7977 ft | 258 kts | 141° |
| 2026-04-29 06:14 | 39.18499 | 15.72443 | 7637 ft | 249 kts | 141° |
| 2026-04-29 06:14 | 39.15911 | 15.75245 | 7127 ft | 236 kts | 141° |
| 2026-04-29 06:15 | 39.13582 | 15.77764 | 6694 ft | 227 kts | 141° |
| 2026-04-29 06:15 | 39.12102 | 15.79366 | 6421 ft | 231 kts | 141° |
| 2026-04-29 06:15 | 39.09599 | 15.82069 | 5946 ft | 237 kts | 141° |
| 2026-04-29 06:15 | 39.07372 | 15.84473 | 5525 ft | 241 kts | 141° |
| 2026-04-29 06:16 | 39.06096 | 15.85850 | 5250 ft | 237 kts | 141° |
| 2026-04-29 06:16 | 39.04852 | 15.87193 | 4990 ft | 230 kts | 141° |
| 2026-04-29 06:16 | 39.03652 | 15.88487 | 4826 ft | 217 kts | 141° |
| 2026-04-29 06:16 | 39.02462 | 15.89770 | 4691 ft | 200 kts | 141° |
| 2026-04-29 06:17 | 39.00756 | 15.91608 | 4510 ft | 175 kts | 141° |
| 2026-04-29 06:17 | 38.99393 | 15.93073 | 4469 ft | 188 kts | 142° |
| 2026-04-29 06:17 | 38.97613 | 15.94984 | 4269 ft | 197 kts | 141° |
| 2026-04-29 06:17 | 38.96500 | 15.96181 | 4036 ft | 195 kts | 141° |
| 2026-04-29 06:18 | 38.94483 | 15.98349 | 3560 ft | 184 kts | 141° |
| 2026-04-29 06:18 | 38.93681 | 15.99622 | 3355 ft | 182 kts | 107° |
| 2026-04-29 06:18 | 38.93450 | 16.01191 | 3204 ft | 176 kts | 107° |
| 2026-04-29 06:18 | 38.93120 | 16.02682 | 3031 ft | 170 kts | 104° |
| 2026-04-29 06:19 | 38.92800 | 16.05101 | 2769 ft | 168 kts | 101° |
| 2026-04-29 06:19 | 38.92515 | 16.07483 | 2424 ft | 165 kts | 101° |
| 2026-04-29 06:19 | 38.92339 | 16.08913 | 2200 ft | 160 kts | 100° |
| 2026-04-29 06:19 | 38.92175 | 16.10288 | 1995 ft | 156 kts | 100° |
| 2026-04-29 06:20 | 38.92011 | 16.11668 | 1794 ft | 157 kts | 99° |
| 2026-04-29 06:20 | 38.91848 | 16.13053 | 1580 ft | 156 kts | 99° |
| 2026-04-29 06:20 | 38.91687 | 16.14421 | 1372 ft | 154 kts | 99° |
| 2026-04-29 06:20 | 38.91526 | 16.15783 | 1172 ft | 154 kts | 98° |
| 2026-04-29 06:21 | 38.91368 | 16.17133 | 964 ft | 153 kts | 98° |
| 2026-04-29 06:21 | 38.91210 | 16.18480 | 766 ft | 152 kts | 98° |
| 2026-04-29 06:21 | 38.91052 | 16.19830 | 560 ft | 153 kts | 98° |
| 2026-04-29 06:21 | 38.90893 | 16.21180 | 324 ft | 154 kts | 98° |
| 2026-04-29 06:22 | 38.90741 | 16.22538 | 118 ft | 153 kts | 98° |
| 2026-04-29 06:22 | 38.90586 | 16.23857 | 35 ft | 140 kts | 98° |
| 2026-04-29 06:22 | 38.90475 | 16.24812 | 43 ft | 76 kts | 98° |
| 2026-04-29 06:22 | 38.90422 | 16.25279 | 44 ft | 38 kts | 99° |
| 2026-04-29 06:23 | 38.90403 | 16.25513 | 47 ft | 20 kts | 65° |
| 2026-04-29 06:23 | 38.90504 | 16.25528 | 47 ft | 17 kts | 320° |
| 2026-04-29 06:23 | 38.90568 | 16.25455 | 47 ft | 0 kts | 312° |
| 2026-04-29 06:23 | 38.90569 | 16.25453 | 47 ft | 0 kts | 312° |
| 2026-04-29 06:24 | 38.90571 | 16.25451 | 47 ft | 0 kts | 312° |
| 2026-04-29 06:24 | 38.90571 | 16.25450 | 47 ft | 0 kts | 312° |
| 2026-04-29 06:24 | 38.90572 | 16.25450 | 47 ft | 0 kts | 312° |